Haicheng, China
Current Conditions -  °F | °C
As of 8:00 PM on Sunday 23 Nov 2014 (Local Time) from ZYTX Reporting Station
Clear Clear  
Wind Chill:   Ceiling: Unl
Heat Index:   Visibility: 4mi
Dew Point:   Wind: 9mph
Humidity: 81%   Direction: 170°S
Pressure: 30.24"   Gusts: NA
Location:  40.86°N, 122.74°E
Report Text: ZYTX 231200Z 17004MPS 6000 NSC 06/03 Q1024 NOSIG
Loading
Personal Weather Stations






























Interactive Weather Map New forecast layout! Learn more

10-Day Weather Forecast

Advertisements
Track Severe Weather on mobile